Time;durP1;ratioP1;P1;durP2;ratioP2;P2;SDS_P1;SDS_P2;PMS_P1;PMS_P2;Temp;Humidity;BMP_temperature;BMP_pressure;BME280_temperature;BME280_humidity;BME280_pressure;Samples;Min_cycle;Max_cycle;Signal;HPM_P1;HPM_P2
2021/05/29 00:00:46;;;;;;;8.90;6.27;;;11.70;99.90;;;;;;5260375;27;20146;-66
2021/05/29 00:03:16;;;;;;;9.40;6.23;;;11.70;99.90;;;;;;5262309;27;20154;-61
2021/05/29 00:05:43;;;;;;;9.43;7.43;;;11.70;99.90;;;;;;5261079;27;20122;-61
2021/05/29 00:08:12;;;;;;;10.03;7.47;;;11.70;99.90;;;;;;5260903;27;20103;-64
2021/05/29 00:10:40;;;;;;;9.90;6.97;;;11.70;99.90;;;;;;5260694;27;20156;-61
2021/05/29 00:13:08;;;;;;;10.10;5.80;;;11.70;99.90;;;;;;5260512;27;20117;-61
2021/05/29 00:15:35;;;;;;;6.37;4.93;;;11.60;99.90;;;;;;5259907;27;20543;-61
2021/05/29 00:18:01;;;;;;;7.53;4.93;;;11.60;99.90;;;;;;5260096;27;20118;-62
2021/05/29 00:20:28;;;;;;;7.37;4.73;;;11.60;99.90;;;;;;5260652;27;20123;-62
2021/05/29 00:22:54;;;;;;;6.63;4.77;;;11.60;99.90;;;;;;5262892;27;20409;-63
2021/05/29 00:25:21;;;;;;;9.33;5.50;;;11.60;99.90;;;;;;5260057;27;20139;-62
2021/05/29 00:27:47;;;;;;;6.30;4.40;;;11.50;99.90;;;;;;5259923;27;20138;-60
2021/05/29 00:30:18;;;;;;;6.37;4.30;;;11.50;99.90;;;;;;5260661;27;20442;-63
2021/05/29 00:32:44;;;;;;;7.63;4.57;;;11.50;99.90;;;;;;5260696;27;20121;-64
2021/05/29 00:35:13;;;;;;;5.17;3.90;;;11.40;99.90;;;;;;5258571;27;20130;-61
2021/05/29 00:37:40;;;;;;;5.23;4.10;;;11.40;99.90;;;;;;5260422;27;20108;-62
2021/05/29 00:40:10;;;;;;;7.63;4.87;;;11.40;99.90;;;;;;5259897;27;20138;-66
2021/05/29 00:42:37;;;;;;;7.67;4.93;;;11.40;99.90;;;;;;5259927;27;20115;-63
2021/05/29 00:45:04;;;;;;;7.93;4.80;;;11.40;99.90;;;;;;5257331;27;20207;-61
2021/05/29 00:47:32;;;;;;;8.10;5.03;;;11.30;99.90;;;;;;5259076;27;20562;-60
2021/05/29 00:50:03;;;;;;;5.93;4.60;;;11.30;99.90;;;;;;5259340;27;20127;-64
2021/05/29 00:52:30;;;;;;;5.10;4.60;;;11.30;99.90;;;;;;5260385;27;20151;-62
2021/05/29 00:54:56;;;;;;;7.63;4.63;;;11.30;99.90;;;;;;5258750;27;20472;-61
2021/05/29 00:57:24;;;;;;;7.27;5.33;;;11.30;99.90;;;;;;5241422;27;20575;-61
2021/05/29 00:59:51;;;;;;;7.37;5.17;;;11.30;99.90;;;;;;5260593;27;20107;-63
2021/05/29 01:02:20;;;;;;;10.53;5.37;;;11.30;99.90;;;;;;5259973;27;20119;-63
2021/05/29 01:04:47;;;;;;;9.30;5.63;;;11.30;99.90;;;;;;5260696;27;20103;-61
2021/05/29 01:07:16;;;;;;;8.60;5.47;;;11.20;99.90;;;;;;5261370;27;20155;-62
2021/05/29 01:09:44;;;;;;;6.67;5.43;;;11.20;99.90;;;;;;5260460;27;20128;-63
2021/05/29 01:12:14;;;;;;;6.80;5.30;;;11.20;99.90;;;;;;5261904;27;20157;-62
2021/05/29 01:14:54;;;;;;;8.07;5.57;;;11.20;99.90;;;;;;5260331;27;20407;-62
2021/05/29 01:17:22;;;;;;;6.67;5.00;;;11.30;99.90;;;;;;5261001;27;20546;-64
2021/05/29 01:19:50;;;;;;;6.27;4.97;;;11.20;99.90;;;;;;5260362;27;20378;-64
2021/05/29 01:22:40;;;;;;;9.07;6.43;;;11.10;99.90;;;;;;5260505;27;20108;-61
2021/05/29 01:25:12;;;;;;;8.13;6.20;;;11.10;99.90;;;;;;5259996;27;20222;-62
2021/05/29 01:27:39;;;;;;;9.70;5.60;;;11.00;99.90;;;;;;5261292;27;20108;-61
2021/05/29 01:30:08;;;;;;;6.90;5.10;;;11.00;99.90;;;;;;5262336;27;20138;-62
2021/05/29 01:32:34;;;;;;;8.03;6.23;;;10.90;99.90;;;;;;5260252;27;20108;-63
2021/05/29 01:35:04;;;;;;;7.80;5.60;;;10.90;99.90;;;;;;5260510;27;20137;-62
2021/05/29 01:37:31;;;;;;;9.93;5.97;;;10.90;99.90;;;;;;5260037;27;20109;-62
2021/05/29 01:39:58;;;;;;;8.77;5.90;;;10.90;99.90;;;;;;5260232;27;20167;-63
2021/05/29 01:42:26;;;;;;;8.93;5.63;;;10.90;99.90;;;;;;5261552;27;20108;-62
2021/05/29 01:44:55;;;;;;;11.13;6.17;;;10.90;99.90;;;;;;5261326;27;20106;-62
2021/05/29 01:47:32;;;;;;;7.10;5.63;;;10.80;99.90;;;;;;5260180;27;20115;-60
2021/05/29 01:49:58;;;;;;;7.93;5.93;;;10.80;99.90;;;;;;5261382;27;20468;-62
2021/05/29 01:52:49;;;;;;;7.83;5.20;;;10.70;99.90;;;;;;5259951;27;20107;-63
2021/05/29 01:55:18;;;;;;;8.70;5.80;;;10.70;99.90;;;;;;5259263;27;20142;-62
2021/05/29 01:57:48;;;;;;;8.80;5.77;;;10.70;99.90;;;;;;5260209;27;20538;-64
2021/05/29 02:00:16;;;;;;;7.23;6.10;;;10.60;99.90;;;;;;5260285;27;20495;-64
2021/05/29 02:02:42;;;;;;;6.87;5.83;;;10.60;99.90;;;;;;5260999;27;20146;-61
2021/05/29 02:05:10;;;;;;;8.00;5.53;;;10.60;99.90;;;;;;5261399;27;20145;-61
2021/05/29 02:07:37;;;;;;;8.13;5.10;;;10.60;99.90;;;;;;5261110;27;20150;-62
2021/05/29 02:10:04;;;;;;;8.10;6.07;;;10.50;99.90;;;;;;5262453;27;20501;-61
2021/05/29 02:12:40;;;;;;;8.90;5.97;;;10.50;99.90;;;;;;5261063;27;20138;-65
2021/05/29 02:15:08;;;;;;;10.73;6.17;;;10.50;99.90;;;;;;5261884;27;20110;-61
2021/05/29 02:17:34;;;;;;;8.47;5.40;;;10.40;99.90;;;;;;5261531;27;20418;-64
2021/05/29 02:20:01;;;;;;;10.87;5.70;;;10.40;99.90;;;;;;5261005;27;20103;-63
2021/05/29 02:22:27;;;;;;;7.13;5.50;;;10.30;99.90;;;;;;5262154;27;20115;-61
2021/05/29 02:24:54;;;;;;;6.10;5.37;;;10.30;99.90;;;;;;5261139;27;20170;-62
2021/05/29 02:27:21;;;;;;;7.23;4.80;;;10.30;99.90;;;;;;5263436;27;20109;-62
2021/05/29 02:29:53;;;;;;;5.77;5.17;;;10.30;99.90;;;;;;5262864;27;20522;-62
2021/05/29 02:32:20;;;;;;;5.77;4.70;;;10.20;99.90;;;;;;5261090;27;20157;-62
2021/05/29 02:34:47;;;;;;;8.27;5.73;;;10.20;99.90;;;;;;5261614;27;20108;-62
2021/05/29 02:37:13;;;;;;;6.67;5.73;;;10.10;99.90;;;;;;5261314;27;20142;-64
2021/05/29 02:39:45;;;;;;;10.27;6.20;;;10.10;99.90;;;;;;5261407;27;20107;-62
2021/05/29 02:42:11;;;;;;;8.43;4.50;;;10.10;99.90;;;;;;5261450;27;20111;-63
2021/05/29 02:44:38;;;;;;;6.07;5.47;;;10.10;99.90;;;;;;5261333;27;20105;-63
2021/05/29 02:47:05;;;;;;;7.07;5.50;;;10.10;99.90;;;;;;5261013;27;20123;-61
2021/05/29 02:49:31;;;;;;;7.57;5.23;;;10.10;99.90;;;;;;5260442;27;20134;-62
2021/05/29 02:51:58;;;;;;;9.77;5.27;;;10.00;99.90;;;;;;5260850;27;20110;-61
2021/05/29 02:54:24;;;;;;;6.27;5.20;;;10.00;99.90;;;;;;5262465;27;20160;-63
2021/05/29 02:56:50;;;;;;;7.93;4.73;;;10.00;99.90;;;;;;5261233;27;20107;-61
2021/05/29 02:59:19;;;;;;;10.10;5.17;;;10.00;99.90;;;;;;5261582;27;20130;-62
2021/05/29 03:01:46;;;;;;;5.93;4.77;;;9.90;99.90;;;;;;5261307;27;20126;-61
2021/05/29 03:04:16;;;;;;;7.27;4.67;;;10.00;99.90;;;;;;5261262;27;20111;-61
2021/05/29 03:06:42;;;;;;;5.87;4.80;;;9.90;99.90;;;;;;5261517;27;20108;-63
2021/05/29 03:09:09;;;;;;;8.17;4.83;;;9.80;99.90;;;;;;5262540;27;20127;-63
2021/05/29 03:11:42;;;;;;;7.00;5.00;;;9.80;99.90;;;;;;5260748;27;20106;-62
2021/05/29 03:14:12;;;;;;;4.63;4.10;;;9.70;99.90;;;;;;5261660;27;20107;-61
2021/05/29 03:16:39;;;;;;;6.63;4.77;;;9.70;99.90;;;;;;5260441;27;20117;-61
2021/05/29 03:19:08;;;;;;;8.83;5.67;;;9.70;99.90;;;;;;5260717;27;20435;-62
2021/05/29 03:21:36;;;;;;;6.03;5.30;;;9.70;99.90;;;;;;5261325;27;20549;-60
2021/05/29 03:24:04;;;;;;;7.00;5.00;;;9.70;99.90;;;;;;5260982;27;20107;-60
2021/05/29 03:26:32;;;;;;;8.27;4.80;;;9.60;99.90;;;;;;5260261;27;20136;-60
2021/05/29 03:29:01;;;;;;;8.80;5.00;;;9.60;99.90;;;;;;5260675;27;20110;-64
2021/05/29 03:31:28;;;;;;;6.80;5.30;;;9.60;99.90;;;;;;5261079;27;20111;-63
2021/05/29 03:33:55;;;;;;;7.70;4.73;;;9.60;99.90;;;;;;5260921;27;20184;-63
2021/05/29 03:36:21;;;;;;;6.23;4.37;;;9.60;99.90;;;;;;5261706;27;20130;-63
2021/05/29 03:38:49;;;;;;;5.27;4.77;;;9.50;99.90;;;;;;5260793;27;20141;-61
2021/05/29 03:41:18;;;;;;;6.67;4.73;;;9.50;99.90;;;;;;5260676;27;20107;-61
2021/05/29 03:43:45;;;;;;;7.03;4.97;;;9.50;99.90;;;;;;5260580;27;20119;-62
2021/05/29 03:46:13;;;;;;;7.00;5.07;;;9.50;99.90;;;;;;5260745;27;20128;-62
2021/05/29 03:48:39;;;;;;;7.07;4.87;;;9.50;99.90;;;;;;5260645;27;20560;-62
2021/05/29 03:51:06;;;;;;;8.27;5.40;;;9.50;99.90;;;;;;5260515;27;20128;-61
2021/05/29 03:53:34;;;;;;;6.63;5.17;;;9.50;99.90;;;;;;5260757;27;20120;-63
2021/05/29 03:56:02;;;;;;;6.77;5.03;;;9.50;99.90;;;;;;5260716;27;20108;-61
2021/05/29 03:58:28;;;;;;;7.10;5.73;;;9.40;99.90;;;;;;5260609;27;20123;-60
2021/05/29 04:00:55;;;;;;;6.23;5.37;;;9.50;99.90;;;;;;5260502;27;20119;-63
2021/05/29 04:03:21;;;;;;;8.83;5.57;;;9.50;99.90;;;;;;5260484;27;20136;-62
2021/05/29 04:05:47;;;;;;;5.67;4.87;;;9.60;99.90;;;;;;5260422;27;20139;-64
2021/05/29 04:08:14;;;;;;;6.57;4.73;;;9.50;99.90;;;;;;5260108;27;20155;-63
2021/05/29 04:10:40;;;;;;;6.83;5.00;;;9.60;99.90;;;;;;5260392;27;20129;-62
2021/05/29 04:13:09;;;;;;;6.67;5.27;;;9.50;99.90;;;;;;5260616;27;20107;-63
2021/05/29 04:15:35;;;;;;;6.10;4.87;;;9.60;99.90;;;;;;5260928;27;20126;-62
2021/05/29 04:18:02;;;;;;;7.77;5.37;;;9.70;99.90;;;;;;5260858;27;20107;-61
2021/05/29 04:20:30;;;;;;;6.23;4.63;;;9.70;99.90;;;;;;5260387;27;20111;-61
2021/05/29 04:22:56;;;;;;;7.03;5.60;;;9.70;99.90;;;;;;5260381;27;20114;-63
2021/05/29 04:25:28;;;;;;;7.13;4.93;;;9.70;99.90;;;;;;5262338;27;20190;-62
2021/05/29 04:27:56;;;;;;;8.00;5.20;;;9.80;99.90;;;;;;5260013;27;20451;-62
2021/05/29 04:30:26;;;;;;;6.03;5.20;;;9.80;99.90;;;;;;5260616;27;20109;-63
2021/05/29 04:32:53;;;;;;;6.47;5.20;;;9.90;99.90;;;;;;5260423;27;20160;-63
2021/05/29 04:35:20;;;;;;;7.63;6.10;;;9.90;99.90;;;;;;5260551;27;20143;-60
2021/05/29 04:37:48;;;;;;;8.93;5.27;;;9.90;99.90;;;;;;5260775;27;20109;-61
2021/05/29 04:40:17;;;;;;;7.00;4.90;;;10.10;99.90;;;;;;5260157;27;20143;-63
2021/05/29 04:42:44;;;;;;;8.87;4.97;;;10.20;99.90;;;;;;5260103;27;20219;-61
2021/05/29 04:45:12;;;;;;;7.10;5.30;;;10.70;99.90;;;;;;5259745;27;20130;-63
2021/05/29 04:47:40;;;;;;;7.17;5.50;;;11.40;99.90;;;;;;5260456;27;20107;-61
2021/05/29 04:50:08;;;;;;;8.53;5.10;;;11.60;99.90;;;;;;5259779;27;20112;-64
2021/05/29 04:52:35;;;;;;;6.73;4.93;;;11.50;99.90;;;;;;5260406;27;20126;-63
2021/05/29 04:55:01;;;;;;;7.13;5.07;;;11.40;99.90;;;;;;5260341;27;20109;-63
2021/05/29 04:57:28;;;;;;;8.47;5.53;;;11.30;99.90;;;;;;5260292;27;20132;-64
2021/05/29 04:59:54;;;;;;;6.57;5.53;;;11.30;99.90;;;;;;5260250;27;20196;-61
2021/05/29 05:02:23;;;;;;;7.00;6.30;;;11.40;99.90;;;;;;5260451;27;20105;-62
2021/05/29 05:04:52;;;;;;;7.33;6.10;;;12.00;99.90;;;;;;5260445;27;20153;-63
2021/05/29 05:07:18;;;;;;;9.00;6.47;;;12.40;99.90;;;;;;5260369;27;20178;-62
2021/05/29 05:09:45;;;;;;;8.97;6.60;;;12.50;99.90;;;;;;5260349;27;20175;-62
2021/05/29 05:12:11;;;;;;;7.40;6.47;;;12.40;99.90;;;;;;5259640;27;20400;-63
2021/05/29 05:14:40;;;;;;;11.77;7.10;;;12.20;99.90;;;;;;5259747;27;20108;-62
2021/05/29 05:17:09;;;;;;;7.73;6.93;;;12.60;99.90;;;;;;5260654;27;20134;-61
2021/05/29 05:19:38;;;;;;;9.27;7.00;;;14.20;99.90;;;;;;5260520;27;20118;-62
2021/05/29 05:22:08;;;;;;;8.40;5.47;;;16.60;99.90;;;;;;5259945;27;20108;-62
2021/05/29 05:24:36;;;;;;;9.90;6.93;;;17.80;96.80;;;;;;5261337;27;20108;-61
2021/05/29 05:27:03;;;;;;;8.57;6.17;;;17.30;95.80;;;;;;5260106;27;20160;-61
2021/05/29 05:29:30;;;;;;;9.77;6.57;;;17.10;98.80;;;;;;5261343;27;20175;-63
2021/05/29 05:31:56;;;;;;;7.67;6.23;;;17.50;96.00;;;;;;5261320;27;20115;-63
2021/05/29 05:34:22;;;;;;;8.73;6.70;;;18.00;95.80;;;;;;5262059;27;20108;-64
2021/05/29 05:36:51;;;;;;;10.40;7.00;;;17.80;95.90;;;;;;5261822;27;20119;-64
2021/05/29 05:39:19;;;;;;;10.87;7.80;;;17.30;96.40;;;;;;5260336;27;20115;-62
2021/05/29 05:41:48;;;;;;;7.50;6.80;;;16.90;96.60;;;;;;5262187;27;20577;-61
2021/05/29 05:44:15;;;;;;;8.00;6.17;;;16.50;96.50;;;;;;5262579;27;20456;-62
2021/05/29 05:46:41;;;;;;;8.70;7.07;;;16.30;97.70;;;;;;5262768;27;20107;-63
2021/05/29 05:49:10;;;;;;;11.63;6.93;;;16.60;97.90;;;;;;5261715;27;20111;-60
2021/05/29 05:51:37;;;;;;;11.00;7.13;;;16.90;97.40;;;;;;5260995;27;20137;-61
2021/05/29 05:54:05;;;;;;;8.70;6.30;;;17.40;96.60;;;;;;5261267;27;20123;-62
2021/05/29 05:56:32;;;;;;;9.77;7.13;;;18.40;95.10;;;;;;5262645;27;20542;-63
2021/05/29 05:59:02;;;;;;;10.50;6.80;;;18.90;92.00;;;;;;5260848;27;20122;-63
2021/05/29 06:01:29;;;;;;;10.63;7.07;;;18.00;92.20;;;;;;5261537;27;20106;-62
2021/05/29 06:03:56;;;;;;;9.90;6.87;;;17.00;94.20;;;;;;5261597;27;20118;-62
2021/05/29 06:06:24;;;;;;;8.43;6.80;;;16.40;95.10;;;;;;5262854;27;20116;-65
2021/05/29 06:08:51;;;;;;;8.83;7.10;;;16.00;96.40;;;;;;5261614;27;20601;-64
2021/05/29 06:11:19;;;;;;;7.50;6.67;;;15.60;96.80;;;;;;5261363;27;20138;-60
2021/05/29 06:19:17;;;;;;;10.33;8.07;;;14.70;99.90;;;;;;5261135;27;20149;-64
2021/05/29 06:21:47;;;;;;;11.67;9.07;;;14.50;99.90;;;;;;5261513;27;20596;-61
2021/05/29 06:24:15;;;;;;;18.23;8.33;;;14.30;99.90;;;;;;5261148;27;20131;-64
2021/05/29 06:26:42;;;;;;;12.17;8.30;;;14.30;99.90;;;;;;5261174;27;20528;-62
2021/05/29 06:29:13;;;;;;;11.00;8.23;;;14.70;99.90;;;;;;5261475;27;20116;-64
2021/05/29 06:31:39;;;;;;;14.03;9.47;;;14.70;99.90;;;;;;5263249;27;20448;-63
2021/05/29 06:34:06;;;;;;;13.30;8.97;;;14.60;99.90;;;;;;5262649;27;20418;-62
2021/05/29 06:36:34;;;;;;;12.57;9.70;;;14.50;99.90;;;;;;5261135;27;20611;-61
2021/05/29 06:39:01;;;;;;;12.47;8.77;;;14.40;99.90;;;;;;5262031;27;20144;-63
2021/05/29 06:41:31;;;;;;;12.53;8.77;;;14.50;99.90;;;;;;5261612;27;20104;-62
2021/05/29 06:43:57;;;;;;;13.20;9.17;;;14.60;99.90;;;;;;5261404;27;20569;-63
2021/05/29 06:46:25;;;;;;;14.17;9.77;;;14.60;99.90;;;;;;5262477;27;20494;-63
2021/05/29 06:48:52;;;;;;;12.57;9.77;;;14.70;99.90;;;;;;5263660;27;20107;-64
2021/05/29 06:51:23;;;;;;;10.83;8.90;;;14.80;99.90;;;;;;5261330;27;20106;-61
2021/05/29 06:53:52;;;;;;;11.60;9.70;;;14.90;99.90;;;;;;5261540;27;20103;-62
2021/05/29 06:59:05;;;;;;;14.67;10.10;;;15.10;99.90;;;;;;5261007;27;20157;-63
2021/05/29 07:01:33;;;;;;;12.17;9.80;;;15.20;99.90;;;;;;5259978;27;20142;-64
2021/05/29 07:03:59;;;;;;;16.97;11.60;;;15.30;99.90;;;;;;5262719;27;20420;-63
2021/05/29 07:06:25;;;;;;;14.57;10.27;;;15.30;99.90;;;;;;5260720;27;20154;-62
2021/05/29 07:08:56;;;;;;;13.07;11.00;;;15.40;99.90;;;;;;5261133;27;20103;-65
2021/05/29 07:11:23;;;;;;;15.10;12.20;;;15.80;99.90;;;;;;5263226;27;20142;-60
2021/05/29 07:13:49;;;;;;;15.57;10.60;;;16.90;99.30;;;;;;5264831;27;20122;-62
2021/05/29 07:16:16;;;;;;;16.53;11.33;;;17.40;98.00;;;;;;5266724;27;20122;-62
2021/05/29 07:18:48;;;;;;;10.73;9.63;;;17.50;97.60;;;;;;5260996;27;20130;-62
2021/05/29 07:21:16;;;;;;;13.23;11.20;;;17.90;97.20;;;;;;5261068;27;20177;-62
2021/05/29 07:23:43;;;;;;;14.93;10.00;;;18.20;95.30;;;;;;5261482;27;20444;-63
2021/05/29 07:26:09;;;;;;;15.03;10.23;;;18.80;94.70;;;;;;5261556;27;20170;-64
2021/05/29 07:28:35;;;;;;;14.70;9.90;;;19.20;93.90;;;;;;5260961;27;20121;-62
2021/05/29 07:31:02;;;;;;;14.37;11.00;;;19.10;93.90;;;;;;5262563;27;20111;-61
2021/05/29 07:33:34;;;;;;;12.83;10.17;;;19.70;93.20;;;;;;5261986;27;20528;-62
2021/05/29 07:36:19;;;;;;;15.07;11.17;;;20.30;92.00;;;;;;5258758;27;20229;-63
2021/05/29 07:38:45;;;;;;;14.87;10.20;;;20.60;91.70;;;;;;5260590;27;20107;-62
2021/05/29 07:41:14;;;;;;;14.57;9.77;;;22.80;88.50;;;;;;5260387;27;20106;-63
2021/05/29 07:43:40;;;;;;;17.20;9.30;;;27.00;73.40;;;;;;5263267;27;20112;-63
2021/05/29 07:46:06;;;;;;;11.03;9.20;;;31.10;61.10;;;;;;5262411;27;20115;-62
2021/05/29 07:48:33;;;;;;;13.38;10.18;;;33.10;51.30;;;;;;5260586;27;20166;-63
2021/05/29 07:51:01;;;;;;;9.77;7.85;;;37.20;43.90;;;;;;5260777;27;20119;-62
2021/05/29 07:53:30;;;;;;;11.65;6.70;;;41.30;38.50;;;;;;5260317;27;20516;-62
2021/05/29 07:55:58;;;;;;;11.20;8.75;;;43.80;34.70;;;;;;5259805;27;20116;-62
2021/05/29 07:58:26;;;;;;;8.25;7.40;;;45.00;31.70;;;;;;5260263;27;20163;-62
2021/05/29 08:00:52;;;;;;;9.82;6.62;;;45.50;31.60;;;;;;5261828;27;20166;-64
2021/05/29 08:03:29;;;;;;;8.10;6.85;;;47.00;31.00;;;;;;5260745;27;20118;-64
2021/05/29 08:05:56;;;;;;;10.20;7.15;;;48.70;29.70;;;;;;5260675;27;20107;-64
2021/05/29 08:08:23;;;;;;;10.30;9.27;;;49.80;29.10;;;;;;5260761;27;20451;-63
2021/05/29 08:10:52;;;;;;;6.70;5.82;;;49.70;28.30;;;;;;5260660;27;20174;-62
2021/05/29 08:13:22;;;;;;;8.20;7.10;;;49.60;28.50;;;;;;5260130;27;20436;-62
2021/05/29 08:15:50;;;;;;;11.18;8.75;;;49.10;28.70;;;;;;5259098;27;20115;-63
2021/05/29 08:18:19;;;;;;;16.45;8.50;;;49.20;28.30;;;;;;5260504;27;20108;-64
2021/05/29 08:20:46;;;;;;;11.00;9.98;;;48.90;28.30;;;;;;5260597;27;20110;-63
2021/05/29 08:23:13;;;;;;;10.88;9.73;;;48.60;28.10;;;;;;5262952;27;20134;-64
2021/05/29 08:25:39;;;;;;;12.55;10.13;;;45.80;29.20;;;;;;5260082;27;20115;-64
2021/05/29 08:28:08;;;;;;;12.57;10.38;;;41.20;30.70;;;;;;5261003;27;20157;-63
2021/05/29 08:30:37;;;;;;;11.20;10.18;;;35.70;33.60;;;;;;5262998;27;20139;-62
2021/05/29 08:33:05;;;;;;;16.15;10.90;;;31.30;37.90;;;;;;5260515;27;20127;-63
2021/05/29 08:35:32;;;;;;;12.68;11.38;;;28.50;41.80;;;;;;5263089;27;20142;-62
2021/05/29 08:37:58;;;;;;;14.48;11.77;;;26.20;45.40;;;;;;5260616;27;20116;-62
2021/05/29 08:40:27;;;;;;;14.07;10.18;;;24.80;49.20;;;;;;5261313;27;20152;-63
2021/05/29 08:42:54;;;;;;;14.77;11.45;;;23.90;53.70;;;;;;5260570;27;20134;-63
2021/05/29 08:45:23;;;;;;;12.47;10.80;;;23.00;57.50;;;;;;5262982;27;20532;-62
2021/05/29 08:47:54;;;;;;;13.00;10.90;;;22.40;60.50;;;;;;5260733;27;20149;-62
2021/05/29 08:50:20;;;;;;;11.70;8.97;;;22.00;63.60;;;;;;5260508;27;20531;-62
2021/05/29 08:52:48;;;;;;;15.20;10.13;;;21.80;65.40;;;;;;5261758;27;20127;-65
2021/05/29 08:55:16;;;;;;;11.97;8.37;;;21.20;68.60;;;;;;5259581;27;20158;-64
2021/05/29 08:57:43;;;;;;;9.90;7.73;;;21.30;71.10;;;;;;5260121;27;20111;-63
2021/05/29 09:00:12;;;;;;;9.13;8.17;;;21.60;71.20;;;;;;5260115;27;20107;-63
2021/05/29 09:03:00;;;;;;;8.30;6.70;;;21.60;71.80;;;;;;5260005;27;20130;-61
2021/05/29 09:05:35;;;;;;;10.03;7.00;;;21.60;69.80;;;;;;5260650;27;20127;-64
2021/05/29 09:08:07;;;;;;;6.03;5.20;;;21.60;69.60;;;;;;5264326;27;20145;-62
2021/05/29 09:10:39;;;;;;;7.43;6.30;;;21.40;70.20;;;;;;5260867;27;20118;-63
2021/05/29 09:13:13;;;;;;;6.40;5.80;;;21.40;68.30;;;;;;5261835;27;20150;-62
2021/05/29 09:15:45;;;;;;;7.23;5.33;;;21.30;69.30;;;;;;5261585;27;20126;-65
2021/05/29 09:18:35;;;;;;;7.20;5.87;;;21.40;70.30;;;;;;5261852;27;20538;-63
2021/05/29 09:21:30;;;;;;;13.10;6.10;;;21.50;69.30;;;;;;5261423;27;20137;-62
2021/05/29 09:24:01;;;;;;;8.80;7.17;;;21.70;71.30;;;;;;5242102;27;20157;-63
2021/05/29 09:26:45;;;;;;;10.77;7.33;;;21.30;69.30;;;;;;5261385;27;20139;-62
2021/05/29 09:29:16;;;;;;;9.13;7.63;;;21.20;72.80;;;;;;5261538;27;20103;-63
2021/05/29 09:31:58;;;;;;;10.20;6.27;;;21.20;72.60;;;;;;5261230;27;20111;-62
2021/05/29 09:34:48;;;;;;;7.53;6.73;;;21.30;71.60;;;;;;5261564;27;20732;-61
2021/05/29 09:37:19;;;;;;;8.97;8.07;;;21.30;70.30;;;;;;5153277;27;20157;-63
2021/05/29 09:39:48;;;;;;;8.73;7.83;;;21.10;72.10;;;;;;5154416;27;20591;-63
2021/05/29 09:42:16;;;;;;;11.77;7.73;;;21.10;74.80;;;;;;5155209;27;20175;-62
2021/05/29 09:44:45;;;;;;;10.17;7.37;;;21.10;74.30;;;;;;5152724;27;20128;-61
2021/05/29 09:47:14;;;;;;;9.73;7.10;;;20.90;71.70;;;;;;5154753;27;20152;-61
2021/05/29 09:49:59;;;;;;;10.30;8.10;;;20.60;74.10;;;;;;5152671;27;20133;-63
2021/05/29 09:52:34;;;;;;;9.50;7.83;;;20.70;74.60;;;;;;5153247;27;20100;-63
2021/05/29 09:55:03;;;;;;;10.83;9.60;;;20.80;75.80;;;;;;5153699;27;20191;-61
2021/05/29 09:57:29;;;;;;;9.70;7.13;;;20.90;76.80;;;;;;5153906;27;20118;-62
2021/05/29 09:59:58;;;;;;;9.40;7.90;;;20.80;76.10;;;;;;5153104;27;20124;-61
2021/05/29 10:02:24;;;;;;;12.83;8.77;;;21.00;75.00;;;;;;5153971;27;20136;-64
2021/05/29 10:04:55;;;;;;;11.03;9.93;;;20.60;75.60;;;;;;5154279;27;20124;-63
2021/05/29 10:07:24;;;;;;;10.23;8.90;;;20.70;76.00;;;;;;5155575;27;20560;-62
2021/05/29 10:09:51;;;;;;;11.97;8.77;;;20.30;76.10;;;;;;5153003;27;20144;-62
2021/05/29 10:12:17;;;;;;;13.77;10.07;;;19.80;79.70;;;;;;5152037;27;20140;-62
2021/05/29 10:14:44;;;;;;;10.93;9.37;;;20.00;81.00;;;;;;5236106;27;20214;-62
2021/05/29 10:17:18;;;;;;;13.63;9.83;;;20.10;80.50;;;;;;5262284;27;20149;-62
2021/05/29 10:19:45;;;;;;;12.40;9.13;;;20.30;80.70;;;;;;5259658;27;20155;-66
2021/05/29 10:22:13;;;;;;;13.57;9.37;;;20.50;80.80;;;;;;5260794;27;20616;-64
2021/05/29 10:24:41;;;;;;;14.23;10.27;;;20.60;80.30;;;;;;5261070;27;20134;-63
2021/05/29 10:27:10;;;;;;;14.50;10.60;;;21.00;78.80;;;;;;5260551;27;20139;-64
2021/05/29 10:29:37;;;;;;;12.37;9.03;;;20.80;78.10;;;;;;5261300;27;20243;-61
2021/05/29 10:32:11;;;;;;;14.00;10.07;;;20.60;76.40;;;;;;5260993;27;20108;-63
2021/05/29 10:34:52;;;;;;;10.50;9.37;;;20.20;78.40;;;;;;5262425;27;20103;-63
2021/05/29 10:37:37;;;;;;;10.53;8.53;;;20.10;78.40;;;;;;5259573;27;20107;-64
2021/05/29 10:40:22;;;;;;;11.93;9.03;;;20.30;78.40;;;;;;5261255;27;20149;-62
2021/05/29 10:43:11;;;;;;;12.37;10.30;;;20.40;77.80;;;;;;5260764;27;20107;-62
2021/05/29 10:45:39;;;;;;;11.33;10.13;;;20.50;77.90;;;;;;5260506;27;20164;-62
2021/05/29 10:48:07;;;;;;;12.27;8.77;;;20.50;78.10;;;;;;5259507;27;20138;-62
2021/05/29 10:50:55;;;;;;;11.90;8.27;;;20.30;79.70;;;;;;5258398;27;20141;-62
2021/05/29 10:53:45;;;;;;;9.40;7.10;;;20.30;80.80;;;;;;5261538;27;20106;-61
2021/05/29 10:56:35;;;;;;;9.40;7.20;;;20.80;77.20;;;;;;5260899;27;20123;-64
2021/05/29 10:59:07;;;;;;;8.40;6.93;;;21.00;78.00;;;;;;5260703;27;20104;-61
2021/05/29 11:02:11;;;;;;;11.57;6.97;;;21.10;74.70;;;;;;5261785;27;20155;-61
2021/05/29 11:04:41;;;;;;;7.67;6.03;;;20.60;74.40;;;;;;5261021;27;20446;-65
2021/05/29 11:07:24;;;;;;;8.17;6.60;;;20.50;76.00;;;;;;5262278;27;20131;-61
2021/05/29 11:09:54;;;;;;;11.70;7.53;;;20.60;75.70;;;;;;5262439;27;20126;-60
2021/05/29 11:12:22;;;;;;;7.90;6.03;;;20.50;76.40;;;;;;5262242;27;20107;-61
2021/05/29 11:14:55;;;;;;;9.33;6.83;;;20.80;77.10;;;;;;5260274;27;20119;-63
2021/05/29 11:17:23;;;;;;;10.27;8.00;;;20.80;77.20;;;;;;5260484;27;20426;-63
2021/05/29 11:20:06;;;;;;;8.93;6.40;;;20.50;77.00;;;;;;5262638;27;20126;-62
2021/05/29 11:22:44;;;;;;;8.30;6.03;;;20.50;78.80;;;;;;5260969;27;20131;-62
2021/05/29 11:25:16;;;;;;;7.23;6.13;;;20.70;77.60;;;;;;5260542;27;20191;-61
2021/05/29 11:27:47;;;;;;;8.53;6.33;;;21.00;77.00;;;;;;5262355;27;20459;-62
2021/05/29 11:30:19;;;;;;;11.97;6.43;;;21.30;75.10;;;;;;5262197;27;20111;-62
2021/05/29 11:32:53;;;;;;;9.43;6.70;;;20.90;74.00;;;;;;5261858;27;20458;-62
2021/05/29 11:35:22;;;;;;;6.33;5.70;;;20.60;75.40;;;;;;5260957;27;20499;-64
2021/05/29 11:38:15;;;;;;;8.83;6.73;;;20.40;77.20;;;;;;5263334;27;20146;-65
2021/05/29 11:40:50;;;;;;;6.57;5.87;;;20.70;77.90;;;;;;5260390;27;20134;-62
2021/05/29 11:43:22;;;;;;;6.67;5.93;;;20.80;75.40;;;;;;5261076;27;20582;-62
2021/05/29 11:45:56;;;;;;;7.93;5.50;;;20.80;75.70;;;;;;5260372;27;20115;-62
2021/05/29 11:48:28;;;;;;;6.83;5.30;;;21.00;76.00;;;;;;5260860;27;20103;-61
2021/05/29 11:51:09;;;;;;;7.93;5.33;;;21.00;74.50;;;;;;5260507;27;20138;-62
2021/05/29 11:53:50;;;;;;;8.50;5.97;;;21.10;75.20;;;;;;5262475;27;20500;-62
2021/05/29 11:56:19;;;;;;;5.53;4.67;;;21.20;74.60;;;;;;5260711;27;20539;-62
2021/05/29 11:58:53;;;;;;;7.03;5.40;;;20.90;73.00;;;;;;5260720;27;20168;-61
2021/05/29 12:01:33;;;;;;;5.20;4.47;;;20.90;72.80;;;;;;5260837;27;20133;-64
2021/05/29 12:04:03;;;;;;;5.77;4.33;;;21.00;73.40;;;;;;5260315;27;20111;-64
2021/05/29 12:06:35;;;;;;;6.40;4.80;;;20.90;73.70;;;;;;5260489;27;20107;-62
2021/05/29 12:09:04;;;;;;;7.97;4.30;;;20.70;73.90;;;;;;5261004;27;20127;-64
2021/05/29 12:11:32;;;;;;;7.93;5.00;;;20.70;74.30;;;;;;5259326;27;20115;-61
2021/05/29 12:14:05;;;;;;;7.20;5.23;;;20.90;75.50;;;;;;5260175;27;20126;-65
2021/05/29 12:16:35;;;;;;;6.87;4.17;;;21.20;74.60;;;;;;5260584;27;20160;-63
2021/05/29 12:19:04;;;;;;;8.67;4.53;;;21.50;74.40;;;;;;5260005;27;20190;-65
2021/05/29 12:21:57;;;;;;;6.62;4.57;;;21.50;72.20;;;;;;5187139;27;2026757;-64
2021/05/29 12:24:27;;;;;;;5.47;4.63;;;21.30;71.70;;;;;;5258814;27;20119;-62
2021/05/29 12:26:55;;;;;;;5.47;4.57;;;21.00;72.30;;;;;;5259604;27;20137;-64
2021/05/29 12:29:24;;;;;;;6.20;4.80;;;21.10;74.70;;;;;;5257962;27;20471;-64
2021/05/29 12:31:56;;;;;;;8.00;4.17;;;21.10;74.90;;;;;;5259820;27;20165;-63
2021/05/29 12:34:27;;;;;;;7.37;4.30;;;20.90;74.90;;;;;;5259982;27;20107;-62
2021/05/29 12:37:15;;;;;;;6.03;4.00;;;20.90;74.70;;;;;;5258782;27;20530;-67
2021/05/29 12:39:49;;;;;;;5.67;4.27;;;21.30;74.20;;;;;;5259936;27;20103;-63
2021/05/29 12:42:34;;;;;;;7.00;5.00;;;21.40;72.00;;;;;;5259287;27;20558;-62
2021/05/29 12:45:06;;;;;;;6.27;4.80;;;21.60;74.00;;;;;;5259950;27;20107;-65
2021/05/29 12:47:36;;;;;;;6.77;5.13;;;21.50;74.00;;;;;;5262759;27;20179;-63
2021/05/29 12:50:13;;;;;;;6.97;5.63;;;21.50;72.60;;;;;;5260488;27;20535;-62
2021/05/29 12:52:40;;;;;;;12.07;5.83;;;21.00;73.70;;;;;;5262659;27;20126;-64
2021/05/29 12:55:07;;;;;;;5.30;4.43;;;20.30;74.40;;;;;;5261477;27;20103;-64
2021/05/29 12:57:38;;;;;;;6.87;5.63;;;19.90;76.80;;;;;;5261110;27;20106;-66
2021/05/29 13:00:19;;;;;;;8.83;4.90;;;19.90;76.80;;;;;;5261179;27;20135;-62
2021/05/29 13:08:34;;;;;;;6.60;5.00;;;20.40;76.70;;;;;;5260706;27;20122;-63
2021/05/29 13:11:06;;;;;;;6.50;4.90;;;20.40;74.60;;;;;;5262296;27;20470;-61